Moose Heights, Canada
Current Conditions -  °F | °C
As of 11:00 AM on Wednesday 17 Dec 2014 (Local Time) from CYQZ Reporting Station
Few Clouds Few Clouds  
Wind Chill: 30°   Ceiling: Unl
Heat Index: 30°   Visibility: 7mi
Dew Point: 30°   Wind: 2mph
Humidity: 100%   Direction: 160°SSE
Pressure: 29.82"   Gusts: NA
Location:  53.09°N, 122.49°W
Report Text: CYQZ 171900Z AUTO 16002KT 7SM FEW065 M01/M01 A2982 RMK SLP129
Loading
Personal Weather Stations






























Interactive Weather Map New forecast layout! Learn more

10-Day Weather Forecast

Advertisements
Track Severe Weather on mobile